sensor_id;sensor_type;location;lat;lon;timestamp;temperature;humidity
39519;DHT22;25200;53.394;10.414;2022-10-18T00:01:05;16.40;86.70
39519;DHT22;25200;53.394;10.414;2022-10-18T00:03:31;16.40;86.30
39519;DHT22;25200;53.394;10.414;2022-10-18T00:05:57;16.40;86.40
39519;DHT22;25200;53.394;10.414;2022-10-18T00:08:23;16.40;86.30
39519;DHT22;25200;53.394;10.414;2022-10-18T00:10:49;16.40;86.50
39519;DHT22;25200;53.394;10.414;2022-10-18T00:13:15;16.40;86.30
39519;DHT22;25200;53.394;10.414;2022-10-18T00:15:58;16.40;86.30
39519;DHT22;25200;53.394;10.414;2022-10-18T00:18:24;16.40;86.20
39519;DHT22;25200;53.394;10.414;2022-10-18T00:23:23;16.30;86.30
39519;DHT22;25200;53.394;10.414;2022-10-18T00:25:48;16.30;86.40
39519;DHT22;25200;53.394;10.414;2022-10-18T00:28:14;16.30;86.50
39519;DHT22;25200;53.394;10.414;2022-10-18T00:30:39;16.30;86.40
39519;DHT22;25200;53.394;10.414;2022-10-18T00:33:05;16.30;86.20
39519;DHT22;25200;53.394;10.414;2022-10-18T00:35:33;16.30;86.20
39519;DHT22;25200;53.394;10.414;2022-10-18T00:37:59;16.20;86.40
39519;DHT22;25200;53.394;10.414;2022-10-18T00:40:25;16.20;86.30
39519;DHT22;25200;53.394;10.414;2022-10-18T00:42:51;16.20;86.30
39519;DHT22;25200;53.394;10.414;2022-10-18T00:45:23;16.20;86.20
39519;DHT22;25200;53.394;10.414;2022-10-18T00:48:06;16.20;86.30
39519;DHT22;25200;53.394;10.414;2022-10-18T00:50:33;16.20;86.30
39519;DHT22;25200;53.394;10.414;2022-10-18T00:53:04;16.20;86.30
39519;DHT22;25200;53.394;10.414;2022-10-18T00:55:31;16.10;86.10
39519;DHT22;25200;53.394;10.414;2022-10-18T00:57:58;16.10;86.20
39519;DHT22;25200;53.394;10.414;2022-10-18T01:00:24;16.10;86.20
39519;DHT22;25200;53.394;10.414;2022-10-18T01:02:50;16.10;86.30
39519;DHT22;25200;53.394;10.414;2022-10-18T01:05:17;16.10;86.30
39519;DHT22;25200;53.394;10.414;2022-10-18T01:10:25;16.10;86.30
39519;DHT22;25200;53.394;10.414;2022-10-18T01:15:33;16.10;86.50
39519;DHT22;25200;53.394;10.414;2022-10-18T01:31:28;15.90;86.10
39519;DHT22;25200;53.394;10.414;2022-10-18T01:34:01;15.90;86.40
39519;DHT22;25200;53.394;10.414;2022-10-18T01:36:37;16.00;86.50
39519;DHT22;25200;53.394;10.414;2022-10-18T01:39:08;15.90;86.40
39519;DHT22;25200;53.394;10.414;2022-10-18T01:41:38;15.90;86.40
39519;DHT22;25200;53.394;10.414;2022-10-18T01:44:07;15.90;86.40
39519;DHT22;25200;53.394;10.414;2022-10-18T01:46:35;15.90;86.40
39519;DHT22;25200;53.394;10.414;2022-10-18T01:49:01;15.90;86.50
39519;DHT22;25200;53.394;10.414;2022-10-18T01:51:30;15.80;86.40
39519;DHT22;25200;53.394;10.414;2022-10-18T01:53:56;15.80;86.40
39519;DHT22;25200;53.394;10.414;2022-10-18T02:08:05;15.70;86.20
39519;DHT22;25200;53.394;10.414;2022-10-18T02:10:45;15.70;86.40
39519;DHT22;25200;53.394;10.414;2022-10-18T02:13:16;15.60;86.10
39519;DHT22;25200;53.394;10.414;2022-10-18T02:15:46;15.60;86.20
39519;DHT22;25200;53.394;10.414;2022-10-18T02:18:19;15.60;86.50
39519;DHT22;25200;53.394;10.414;2022-10-18T02:20:47;15.50;86.30
39519;DHT22;25200;53.394;10.414;2022-10-18T02:23:15;15.60;86.30
39519;DHT22;25200;53.394;10.414;2022-10-18T02:25:44;15.50;86.30
39519;DHT22;25200;53.394;10.414;2022-10-18T02:28:10;15.60;86.50
39519;DHT22;25200;53.394;10.414;2022-10-18T02:33:38;15.60;86.60
39519;DHT22;25200;53.394;10.414;2022-10-18T02:36:14;15.60;86.50
39519;DHT22;25200;53.394;10.414;2022-10-18T02:38:44;15.60;86.50
39519;DHT22;25200;53.394;10.414;2022-10-18T02:41:10;15.60;86.60
39519;DHT22;25200;53.394;10.414;2022-10-18T02:43:36;15.60;86.50
39519;DHT22;25200;53.394;10.414;2022-10-18T02:46:02;15.60;86.50
39519;DHT22;25200;53.394;10.414;2022-10-18T02:48:28;15.60;86.50
39519;DHT22;25200;53.394;10.414;2022-10-18T02:50:54;15.60;86.40
39519;DHT22;25200;53.394;10.414;2022-10-18T02:53:19;15.60;86.40
39519;DHT22;25200;53.394;10.414;2022-10-18T02:55:45;15.70;86.50
39519;DHT22;25200;53.394;10.414;2022-10-18T02:58:11;15.60;86.40
39519;DHT22;25200;53.394;10.414;2022-10-18T03:00:36;15.60;86.50
39519;DHT22;25200;53.394;10.414;2022-10-18T03:03:02;15.60;86.50
39519;DHT22;25200;53.394;10.414;2022-10-18T03:05:28;15.70;86.50
39519;DHT22;25200;53.394;10.414;2022-10-18T03:07:55;15.70;86.60
39519;DHT22;25200;53.394;10.414;2022-10-18T03:10:21;15.60;86.60
39519;DHT22;25200;53.394;10.414;2022-10-18T03:12:47;15.60;86.40
39519;DHT22;25200;53.394;10.414;2022-10-18T03:15:13;15.60;86.40
39519;DHT22;25200;53.394;10.414;2022-10-18T03:17:38;15.60;86.40
39519;DHT22;25200;53.394;10.414;2022-10-18T03:20:04;15.70;86.40
39519;DHT22;25200;53.394;10.414;2022-10-18T03:22:30;15.60;86.30
39519;DHT22;25200;53.394;10.414;2022-10-18T03:24:56;15.60;86.40
39519;DHT22;25200;53.394;10.414;2022-10-18T03:27:21;15.60;86.30
39519;DHT22;25200;53.394;10.414;2022-10-18T03:29:47;15.60;86.30
39519;DHT22;25200;53.394;10.414;2022-10-18T03:32:12;15.70;86.30
39519;DHT22;25200;53.394;10.414;2022-10-18T03:34:38;15.60;86.30
39519;DHT22;25200;53.394;10.414;2022-10-18T03:37:04;15.60;86.20
39519;DHT22;25200;53.394;10.414;2022-10-18T03:39:29;15.70;86.50
39519;DHT22;25200;53.394;10.414;2022-10-18T03:41:55;15.70;86.50
39519;DHT22;25200;53.394;10.414;2022-10-18T03:44:21;15.70;86.50
39519;DHT22;25200;53.394;10.414;2022-10-18T03:46:46;15.60;86.30
39519;DHT22;25200;53.394;10.414;2022-10-18T03:49:12;15.60;86.30
39519;DHT22;25200;53.394;10.414;2022-10-18T03:51:40;15.60;86.20
39519;DHT22;25200;53.394;10.414;2022-10-18T03:54:06;15.60;86.50
39519;DHT22;25200;53.394;10.414;2022-10-18T03:56:32;15.60;86.50
39519;DHT22;25200;53.394;10.414;2022-10-18T03:58:57;15.50;86.40
39519;DHT22;25200;53.394;10.414;2022-10-18T04:01:23;15.50;86.30
39519;DHT22;25200;53.394;10.414;2022-10-18T04:03:48;15.50;86.20
39519;DHT22;25200;53.394;10.414;2022-10-18T04:06:14;15.50;86.30
39519;DHT22;25200;53.394;10.414;2022-10-18T04:08:40;15.40;86.20
39519;DHT22;25200;53.394;10.414;2022-10-18T04:11:06;15.40;86.40
39519;DHT22;25200;53.394;10.414;2022-10-18T04:13:33;15.40;86.40
39519;DHT22;25200;53.394;10.414;2022-10-18T04:15:59;15.40;86.30
39519;DHT22;25200;53.394;10.414;2022-10-18T04:18:25;15.40;86.40
39519;DHT22;25200;53.394;10.414;2022-10-18T04:20:50;15.40;86.40
39519;DHT22;25200;53.394;10.414;2022-10-18T04:23:16;15.50;86.40
39519;DHT22;25200;53.394;10.414;2022-10-18T04:25:42;15.40;86.40
39519;DHT22;25200;53.394;10.414;2022-10-18T04:28:07;15.50;86.50
39519;DHT22;25200;53.394;10.414;2022-10-18T04:30:33;15.50;86.50
39519;DHT22;25200;53.394;10.414;2022-10-18T04:32:59;15.50;86.60
39519;DHT22;25200;53.394;10.414;2022-10-18T04:35:24;15.50;86.60
39519;DHT22;25200;53.394;10.414;2022-10-18T04:37:52;15.50;86.40
39519;DHT22;25200;53.394;10.414;2022-10-18T04:40:17;15.50;86.40
39519;DHT22;25200;53.394;10.414;2022-10-18T04:42:44;15.50;86.50
39519;DHT22;25200;53.394;10.414;2022-10-18T04:45:10;15.50;86.40
39519;DHT22;25200;53.394;10.414;2022-10-18T04:47:35;15.50;86.40
39519;DHT22;25200;53.394;10.414;2022-10-18T04:50:01;15.50;86.50
39519;DHT22;25200;53.394;10.414;2022-10-18T04:52:27;15.50;86.50
39519;DHT22;25200;53.394;10.414;2022-10-18T04:54:53;15.50;86.60
39519;DHT22;25200;53.394;10.414;2022-10-18T04:57:18;15.50;86.50
39519;DHT22;25200;53.394;10.414;2022-10-18T04:59:44;15.50;86.50
39519;DHT22;25200;53.394;10.414;2022-10-18T05:02:10;15.50;86.40
39519;DHT22;25200;53.394;10.414;2022-10-18T05:04:35;15.50;86.30
39519;DHT22;25200;53.394;10.414;2022-10-18T05:07:01;15.50;86.40
39519;DHT22;25200;53.394;10.414;2022-10-18T05:09:27;15.50;86.60
39519;DHT22;25200;53.394;10.414;2022-10-18T05:11:53;15.50;86.40
39519;DHT22;25200;53.394;10.414;2022-10-18T05:14:18;15.40;86.30
39519;DHT22;25200;53.394;10.414;2022-10-18T05:16:44;15.40;86.30
39519;DHT22;25200;53.394;10.414;2022-10-18T05:19:10;15.40;86.30
39519;DHT22;25200;53.394;10.414;2022-10-18T05:21:35;15.30;86.30
39519;DHT22;25200;53.394;10.414;2022-10-18T05:24:01;15.30;86.20
39519;DHT22;25200;53.394;10.414;2022-10-18T05:26:27;15.30;86.30
39519;DHT22;25200;53.394;10.414;2022-10-18T05:28:52;15.30;86.30
39519;DHT22;25200;53.394;10.414;2022-10-18T05:31:18;15.30;86.30
39519;DHT22;25200;53.394;10.414;2022-10-18T05:33:44;15.20;86.30
39519;DHT22;25200;53.394;10.414;2022-10-18T05:36:09;15.20;86.40
39519;DHT22;25200;53.394;10.414;2022-10-18T05:38:42;15.20;86.30
39519;DHT22;25200;53.394;10.414;2022-10-18T05:41:08;15.20;86.40
39519;DHT22;25200;53.394;10.414;2022-10-18T05:43:34;15.20;86.40
39519;DHT22;25200;53.394;10.414;2022-10-18T05:45:59;15.20;86.30
39519;DHT22;25200;53.394;10.414;2022-10-18T05:48:25;15.20;86.30
39519;DHT22;25200;53.394;10.414;2022-10-18T05:50:51;15.20;86.50
39519;DHT22;25200;53.394;10.414;2022-10-18T05:53:17;15.10;86.50
39519;DHT22;25200;53.394;10.414;2022-10-18T05:55:42;15.10;86.40
39519;DHT22;25200;53.394;10.414;2022-10-18T05:58:08;15.10;86.30
39519;DHT22;25200;53.394;10.414;2022-10-18T06:00:34;15.10;86.40
39519;DHT22;25200;53.394;10.414;2022-10-18T06:03:00;15.10;86.40
39519;DHT22;25200;53.394;10.414;2022-10-18T06:05:26;15.10;86.30
39519;DHT22;25200;53.394;10.414;2022-10-18T06:07:52;15.10;86.50
39519;DHT22;25200;53.394;10.414;2022-10-18T06:10:18;15.10;86.40
39519;DHT22;25200;53.394;10.414;2022-10-18T06:12:44;15.00;86.50
39519;DHT22;25200;53.394;10.414;2022-10-18T06:15:09;15.00;86.50
39519;DHT22;25200;53.394;10.414;2022-10-18T06:17:35;15.00;86.40
39519;DHT22;25200;53.394;10.414;2022-10-18T06:20:01;15.00;86.50
39519;DHT22;25200;53.394;10.414;2022-10-18T06:22:26;15.00;86.40
39519;DHT22;25200;53.394;10.414;2022-10-18T06:24:52;15.00;86.40
39519;DHT22;25200;53.394;10.414;2022-10-18T06:27:17;15.00;86.40
39519;DHT22;25200;53.394;10.414;2022-10-18T06:29:43;15.00;86.50
39519;DHT22;25200;53.394;10.414;2022-10-18T06:32:09;15.00;86.40
39519;DHT22;25200;53.394;10.414;2022-10-18T06:34:35;15.00;86.40
39519;DHT22;25200;53.394;10.414;2022-10-18T06:37:01;15.00;86.50
39519;DHT22;25200;53.394;10.414;2022-10-18T06:39:26;15.00;86.50
39519;DHT22;25200;53.394;10.414;2022-10-18T06:41:52;15.00;86.40
39519;DHT22;25200;53.394;10.414;2022-10-18T06:44:19;15.00;86.40
39519;DHT22;25200;53.394;10.414;2022-10-18T06:46:46;15.00;86.50
39519;DHT22;25200;53.394;10.414;2022-10-18T06:49:13;15.00;86.40
39519;DHT22;25200;53.394;10.414;2022-10-18T06:51:39;15.00;86.40
39519;DHT22;25200;53.394;10.414;2022-10-18T06:54:05;14.90;86.30
39519;DHT22;25200;53.394;10.414;2022-10-18T06:56:31;15.00;86.40
39519;DHT22;25200;53.394;10.414;2022-10-18T06:58:57;15.00;86.40
39519;DHT22;25200;53.394;10.414;2022-10-18T07:01:22;15.00;86.40
39519;DHT22;25200;53.394;10.414;2022-10-18T07:03:51;15.00;86.50
39519;DHT22;25200;53.394;10.414;2022-10-18T07:06:18;15.00;86.40
39519;DHT22;25200;53.394;10.414;2022-10-18T07:08:46;15.00;86.50
39519;DHT22;25200;53.394;10.414;2022-10-18T07:11:14;15.00;86.30
39519;DHT22;25200;53.394;10.414;2022-10-18T07:13:41;15.00;86.40
39519;DHT22;25200;53.394;10.414;2022-10-18T07:16:09;15.00;86.30
39519;DHT22;25200;53.394;10.414;2022-10-18T07:18:37;15.00;86.90
39519;DHT22;25200;53.394;10.414;2022-10-18T07:21:05;15.00;86.40
39519;DHT22;25200;53.394;10.414;2022-10-18T07:23:35;15.00;86.30
39519;DHT22;25200;53.394;10.414;2022-10-18T07:26:02;15.00;86.40
39519;DHT22;25200;53.394;10.414;2022-10-18T07:28:28;15.00;86.30
39519;DHT22;25200;53.394;10.414;2022-10-18T07:30:54;15.00;86.30
39519;DHT22;25200;53.394;10.414;2022-10-18T07:33:19;15.00;86.30
39519;DHT22;25200;53.394;10.414;2022-10-18T07:35:46;15.00;86.30
39519;DHT22;25200;53.394;10.414;2022-10-18T07:38:12;15.00;86.30
39519;DHT22;25200;53.394;10.414;2022-10-18T07:40:38;15.10;86.30
39519;DHT22;25200;53.394;10.414;2022-10-18T07:43:03;15.10;86.30
39519;DHT22;25200;53.394;10.414;2022-10-18T07:45:29;15.10;86.30
39519;DHT22;25200;53.394;10.414;2022-10-18T07:47:55;15.10;86.30
39519;DHT22;25200;53.394;10.414;2022-10-18T07:50:22;15.10;86.30
39519;DHT22;25200;53.394;10.414;2022-10-18T07:52:48;15.10;86.20
39519;DHT22;25200;53.394;10.414;2022-10-18T07:55:13;15.10;86.10
39519;DHT22;25200;53.394;10.414;2022-10-18T07:57:39;15.20;86.10
39519;DHT22;25200;53.394;10.414;2022-10-18T08:00:05;15.20;86.10
39519;DHT22;25200;53.394;10.414;2022-10-18T08:02:33;15.20;86.10
39519;DHT22;25200;53.394;10.414;2022-10-18T08:04:59;15.20;86.00
39519;DHT22;25200;53.394;10.414;2022-10-18T08:07:24;15.20;86.10
39519;DHT22;25200;53.394;10.414;2022-10-18T08:09:50;15.30;86.00
39519;DHT22;25200;53.394;10.414;2022-10-18T08:12:15;15.30;86.00
39519;DHT22;25200;53.394;10.414;2022-10-18T08:14:41;15.30;86.00
39519;DHT22;25200;53.394;10.414;2022-10-18T08:17:07;15.30;85.90
39519;DHT22;25200;53.394;10.414;2022-10-18T08:19:32;15.30;85.90
39519;DHT22;25200;53.394;10.414;2022-10-18T08:21:58;15.40;86.00
39519;DHT22;25200;53.394;10.414;2022-10-18T08:24:24;15.40;86.00
39519;DHT22;25200;53.394;10.414;2022-10-18T08:26:49;15.40;85.90
39519;DHT22;25200;53.394;10.414;2022-10-18T08:29:15;15.40;85.90
39519;DHT22;25200;53.394;10.414;2022-10-18T08:31:41;15.40;85.90
39519;DHT22;25200;53.394;10.414;2022-10-18T08:34:07;15.40;85.80
39519;DHT22;25200;53.394;10.414;2022-10-18T08:36:32;15.50;85.90
39519;DHT22;25200;53.394;10.414;2022-10-18T08:38:58;15.50;85.90
39519;DHT22;25200;53.394;10.414;2022-10-18T08:46:49;15.50;85.80
39519;DHT22;25200;53.394;10.414;2022-10-18T08:52:18;15.50;85.80
39519;DHT22;25200;53.394;10.414;2022-10-18T08:57:47;15.60;85.80
39519;DHT22;25200;53.394;10.414;2022-10-18T09:00:15;15.60;85.80
39519;DHT22;25200;53.394;10.414;2022-10-18T09:08:39;15.60;85.70
39519;DHT22;25200;53.394;10.414;2022-10-18T09:16:49;15.70;85.70
39519;DHT22;25200;53.394;10.414;2022-10-18T09:22:15;15.80;85.70
39519;DHT22;25200;53.394;10.414;2022-10-18T09:27:18;15.80;85.60
39519;DHT22;25200;53.394;10.414;2022-10-18T09:30:22;15.80;85.50
39519;DHT22;25200;53.394;10.414;2022-10-18T09:35:36;15.80;85.40
39519;DHT22;25200;53.394;10.414;2022-10-18T09:38:09;15.80;85.40
39519;DHT22;25200;53.394;10.414;2022-10-18T09:40:42;15.80;85.30
39519;DHT22;25200;53.394;10.414;2022-10-18T09:43:23;15.80;85.40
39519;DHT22;25200;53.394;10.414;2022-10-18T09:45:50;15.70;85.30
39519;DHT22;25200;53.394;10.414;2022-10-18T09:48:21;15.70;85.30
39519;DHT22;25200;53.394;10.414;2022-10-18T09:51:15;15.60;85.20
39519;DHT22;25200;53.394;10.414;2022-10-18T09:56:35;15.60;85.50
39519;DHT22;25200;53.394;10.414;2022-10-18T09:59:02;15.70;85.60
39519;DHT22;25200;53.394;10.414;2022-10-18T10:01:29;15.70;85.60
39519;DHT22;25200;53.394;10.414;2022-10-18T10:03:56;15.80;85.70
39519;DHT22;25200;53.394;10.414;2022-10-18T10:06:24;15.90;85.60
39519;DHT22;25200;53.394;10.414;2022-10-18T10:09:06;16.00;85.50
39519;DHT22;25200;53.394;10.414;2022-10-18T10:11:47;16.10;85.40
39519;DHT22;25200;53.394;10.414;2022-10-18T10:14:24;16.20;85.30
39519;DHT22;25200;53.394;10.414;2022-10-18T10:17:01;16.30;85.20
39519;DHT22;25200;53.394;10.414;2022-10-18T10:19:38;16.50;85.30
39519;DHT22;25200;53.394;10.414;2022-10-18T10:22:12;16.60;85.10
39519;DHT22;25200;53.394;10.414;2022-10-18T10:24:56;16.70;84.80
39519;DHT22;25200;53.394;10.414;2022-10-18T10:27:36;16.80;84.50
39519;DHT22;25200;53.394;10.414;2022-10-18T10:30:37;16.90;84.30
39519;DHT22;25200;53.394;10.414;2022-10-18T10:33:04;17.00;84.10
39519;DHT22;25200;53.394;10.414;2022-10-18T10:35:36;17.00;83.90
39519;DHT22;25200;53.394;10.414;2022-10-18T10:38:03;17.00;83.90
39519;DHT22;25200;53.394;10.414;2022-10-18T10:40:32;17.00;83.90
39519;DHT22;25200;53.394;10.414;2022-10-18T10:45:37;17.10;83.80
39519;DHT22;25200;53.394;10.414;2022-10-18T10:48:07;17.10;83.80
39519;DHT22;25200;53.394;10.414;2022-10-18T10:50:48;17.10;83.80
39519;DHT22;25200;53.394;10.414;2022-10-18T10:53:42;17.10;83.90
39519;DHT22;25200;53.394;10.414;2022-10-18T10:56:28;17.10;83.90
39519;DHT22;25200;53.394;10.414;2022-10-18T10:59:00;17.20;83.90
39519;DHT22;25200;53.394;10.414;2022-10-18T11:01:31;17.20;83.60
39519;DHT22;25200;53.394;10.414;2022-10-18T11:12:02;17.30;83.80
39519;DHT22;25200;53.394;10.414;2022-10-18T11:14:33;17.30;83.80
39519;DHT22;25200;53.394;10.414;2022-10-18T11:17:10;17.30;83.60
39519;DHT22;25200;53.394;10.414;2022-10-18T11:20:00;17.40;83.40
39519;DHT22;25200;53.394;10.414;2022-10-18T11:22:42;17.40;83.50
39519;DHT22;25200;53.394;10.414;2022-10-18T11:25:13;17.40;83.50
39519;DHT22;25200;53.394;10.414;2022-10-18T11:34:08;17.60;83.20
39519;DHT22;25200;53.394;10.414;2022-10-18T11:36:09;17.70;83.30
39519;DHT22;25200;53.394;10.414;2022-10-18T11:38:49;17.80;83.30
39519;DHT22;25200;53.394;10.414;2022-10-18T11:41:42;17.90;83.00
39519;DHT22;25200;53.394;10.414;2022-10-18T11:47:12;18.10;82.50
39519;DHT22;25200;53.394;10.414;2022-10-18T11:49:46;18.20;82.90
39519;DHT22;25200;53.394;10.414;2022-10-18T11:57:59;18.70;82.00
39519;DHT22;25200;53.394;10.414;2022-10-18T12:00:34;18.70;81.40
39519;DHT22;25200;53.394;10.414;2022-10-18T12:03:17;18.70;80.50
39519;DHT22;25200;53.394;10.414;2022-10-18T12:05:45;18.60;80.70
39519;DHT22;25200;53.394;10.414;2022-10-18T12:08:24;18.50;80.40
39519;DHT22;25200;53.394;10.414;2022-10-18T12:10:55;18.40;80.90
39519;DHT22;25200;53.394;10.414;2022-10-18T12:13:30;18.40;81.10
39519;DHT22;25200;53.394;10.414;2022-10-18T12:15:57;18.50;81.10
39519;DHT22;25200;53.394;10.414;2022-10-18T12:18:24;18.50;81.40
39519;DHT22;25200;53.394;10.414;2022-10-18T12:20:55;18.60;80.70
39519;DHT22;25200;53.394;10.414;2022-10-18T12:25:58;18.80;80.90
39519;DHT22;25200;53.394;10.414;2022-10-18T12:28:55;18.90;80.40
39519;DHT22;25200;53.394;10.414;2022-10-18T12:33:55;19.00;79.80
39519;DHT22;25200;53.394;10.414;2022-10-18T12:39:14;19.20;79.90
39519;DHT22;25200;53.394;10.414;2022-10-18T12:41:46;19.30;80.50
39519;DHT22;25200;53.394;10.414;2022-10-18T12:44:21;19.30;80.20
39519;DHT22;25200;53.394;10.414;2022-10-18T12:46:51;19.40;80.40
39519;DHT22;25200;53.394;10.414;2022-10-18T12:49:27;19.50;79.30
39519;DHT22;25200;53.394;10.414;2022-10-18T12:52:01;19.50;79.40
39519;DHT22;25200;53.394;10.414;2022-10-18T12:54:33;19.60;79.90
39519;DHT22;25200;53.394;10.414;2022-10-18T12:57:00;19.60;78.90
39519;DHT22;25200;53.394;10.414;2022-10-18T13:09:37;19.20;78.40
39519;DHT22;25200;53.394;10.414;2022-10-18T13:17:11;18.70;78.20
39519;DHT22;25200;53.394;10.414;2022-10-18T13:28:04;18.30;79.10
39519;DHT22;25200;53.394;10.414;2022-10-18T13:33:30;18.20;79.50
39519;DHT22;25200;53.394;10.414;2022-10-18T14:11:06;18.70;79.20
39519;DHT22;25200;53.394;10.414;2022-10-18T14:14:01;18.70;79.00
39519;DHT22;25200;53.394;10.414;2022-10-18T14:19:10;18.70;77.80
39519;DHT22;25200;53.394;10.414;2022-10-18T14:21:40;18.70;78.50
39519;DHT22;25200;53.394;10.414;2022-10-18T14:24:16;18.60;78.60
39519;DHT22;25200;53.394;10.414;2022-10-18T14:26:43;18.60;78.90
39519;DHT22;25200;53.394;10.414;2022-10-18T14:29:17;18.60;78.60
39519;DHT22;25200;53.394;10.414;2022-10-18T14:31:51;18.60;78.80
39519;DHT22;25200;53.394;10.414;2022-10-18T14:34:17;18.60;78.30
39519;DHT22;25200;53.394;10.414;2022-10-18T14:36:45;18.50;78.30
39519;DHT22;25200;53.394;10.414;2022-10-18T14:39:24;18.40;78.10
39519;DHT22;25200;53.394;10.414;2022-10-18T14:41:54;18.30;77.20
39519;DHT22;25200;53.394;10.414;2022-10-18T14:44:27;18.20;77.20
39519;DHT22;25200;53.394;10.414;2022-10-18T14:47:24;18.20;77.80
39519;DHT22;25200;53.394;10.414;2022-10-18T14:49:51;18.10;78.40
39519;DHT22;25200;53.394;10.414;2022-10-18T14:52:30;18.00;78.40
39519;DHT22;25200;53.394;10.414;2022-10-18T14:54:57;18.00;78.40
39519;DHT22;25200;53.394;10.414;2022-10-18T14:57:28;17.90;78.50
39519;DHT22;25200;53.394;10.414;2022-10-18T15:00:00;17.90;77.80
39519;DHT22;25200;53.394;10.414;2022-10-18T15:02:29;17.80;78.40
39519;DHT22;25200;53.394;10.414;2022-10-18T15:07:34;17.70;78.20
39519;DHT22;25200;53.394;10.414;2022-10-18T15:10:02;17.70;78.70
39519;DHT22;25200;53.394;10.414;2022-10-18T15:12:29;17.60;78.30
39519;DHT22;25200;53.394;10.414;2022-10-18T15:14:57;17.60;78.50
39519;DHT22;25200;53.394;10.414;2022-10-18T15:17:27;17.50;78.70
39519;DHT22;25200;53.394;10.414;2022-10-18T15:20:02;17.50;78.90
39519;DHT22;25200;53.394;10.414;2022-10-18T15:22:30;17.40;79.30
39519;DHT22;25200;53.394;10.414;2022-10-18T15:25:16;17.40;78.80
39519;DHT22;25200;53.394;10.414;2022-10-18T15:27:50;17.40;78.50
39519;DHT22;25200;53.394;10.414;2022-10-18T15:32:53;17.30;79.10
39519;DHT22;25200;53.394;10.414;2022-10-18T15:35:25;17.30;78.90
39519;DHT22;25200;53.394;10.414;2022-10-18T15:37:53;17.20;78.70
39519;DHT22;25200;53.394;10.414;2022-10-18T15:42:55;17.20;79.20
39519;DHT22;25200;53.394;10.414;2022-10-18T15:50:39;17.10;79.00
39519;DHT22;25200;53.394;10.414;2022-10-18T15:56:05;17.00;79.00
39519;DHT22;25200;53.394;10.414;2022-10-18T15:58:39;17.00;78.80
39519;DHT22;25200;53.394;10.414;2022-10-18T16:01:13;16.90;78.90
39519;DHT22;25200;53.394;10.414;2022-10-18T16:03:39;16.90;78.90
39519;DHT22;25200;53.394;10.414;2022-10-18T16:06:06;16.80;79.00
39519;DHT22;25200;53.394;10.414;2022-10-18T16:08:37;16.80;79.20
39519;DHT22;25200;53.394;10.414;2022-10-18T16:11:06;16.70;79.10
39519;DHT22;25200;53.394;10.414;2022-10-18T16:13:32;16.70;79.20
39519;DHT22;25200;53.394;10.414;2022-10-18T16:15:58;16.60;79.20
39519;DHT22;25200;53.394;10.414;2022-10-18T16:18:25;16.60;79.40
39519;DHT22;25200;53.394;10.414;2022-10-18T16:20:51;16.50;79.30
39519;DHT22;25200;53.394;10.414;2022-10-18T16:23:23;16.50;79.40
39519;DHT22;25200;53.394;10.414;2022-10-18T16:25:50;16.40;79.60
39519;DHT22;25200;53.394;10.414;2022-10-18T16:28:23;16.40;79.60
39519;DHT22;25200;53.394;10.414;2022-10-18T16:31:02;16.40;79.50
39519;DHT22;25200;53.394;10.414;2022-10-18T16:33:31;16.30;79.70
39519;DHT22;25200;53.394;10.414;2022-10-18T16:35:57;16.30;79.60
39519;DHT22;25200;53.394;10.414;2022-10-18T16:38:27;16.30;79.80
39519;DHT22;25200;53.394;10.414;2022-10-18T16:40:53;16.20;80.20
39519;DHT22;25200;53.394;10.414;2022-10-18T16:43:18;16.20;79.70
39519;DHT22;25200;53.394;10.414;2022-10-18T16:45:44;16.10;79.60
39519;DHT22;25200;53.394;10.414;2022-10-18T16:48:20;16.10;79.90
39519;DHT22;25200;53.394;10.414;2022-10-18T16:50:47;16.10;79.70
39519;DHT22;25200;53.394;10.414;2022-10-18T16:53:13;16.00;79.70
39519;DHT22;25200;53.394;10.414;2022-10-18T16:55:40;16.00;79.80
39519;DHT22;25200;53.394;10.414;2022-10-18T16:58:07;16.00;79.90
39519;DHT22;25200;53.394;10.414;2022-10-18T17:00:35;15.90;79.90
39519;DHT22;25200;53.394;10.414;2022-10-18T17:03:03;15.90;79.90
39519;DHT22;25200;53.394;10.414;2022-10-18T17:05:28;15.80;79.80
39519;DHT22;25200;53.394;10.414;2022-10-18T17:07:55;15.80;80.00
39519;DHT22;25200;53.394;10.414;2022-10-18T17:10:21;15.80;80.10
39519;DHT22;25200;53.394;10.414;2022-10-18T17:12:49;15.80;80.20
39519;DHT22;25200;53.394;10.414;2022-10-18T17:15:15;15.80;80.20
39519;DHT22;25200;53.394;10.414;2022-10-18T17:17:40;15.80;80.10
39519;DHT22;25200;53.394;10.414;2022-10-18T17:20:07;15.80;80.10
39519;DHT22;25200;53.394;10.414;2022-10-18T17:22:33;15.70;80.00
39519;DHT22;25200;53.394;10.414;2022-10-18T17:24:59;15.70;80.00
39519;DHT22;25200;53.394;10.414;2022-10-18T17:27:24;15.60;80.00
39519;DHT22;25200;53.394;10.414;2022-10-18T17:29:50;15.60;80.00
39519;DHT22;25200;53.394;10.414;2022-10-18T17:32:16;15.60;80.10
39519;DHT22;25200;53.394;10.414;2022-10-18T17:34:41;15.50;80.10
39519;DHT22;25200;53.394;10.414;2022-10-18T17:37:07;15.50;80.10
39519;DHT22;25200;53.394;10.414;2022-10-18T17:39:33;15.50;80.10
39519;DHT22;25200;53.394;10.414;2022-10-18T17:41:59;15.40;80.00
39519;DHT22;25200;53.394;10.414;2022-10-18T17:44:25;15.40;80.10
39519;DHT22;25200;53.394;10.414;2022-10-18T17:46:50;15.30;80.10
39519;DHT22;25200;53.394;10.414;2022-10-18T17:49:17;15.30;80.20
39519;DHT22;25200;53.394;10.414;2022-10-18T17:51:43;15.20;80.10
39519;DHT22;25200;53.394;10.414;2022-10-18T17:54:10;15.20;80.10
39519;DHT22;25200;53.394;10.414;2022-10-18T17:56:36;15.20;80.20
39519;DHT22;25200;53.394;10.414;2022-10-18T17:59:03;15.20;80.40
39519;DHT22;25200;53.394;10.414;2022-10-18T18:01:29;15.10;80.40
39519;DHT22;25200;53.394;10.414;2022-10-18T18:03:59;15.20;80.40
39519;DHT22;25200;53.394;10.414;2022-10-18T18:06:29;15.20;80.60
39519;DHT22;25200;53.394;10.414;2022-10-18T18:08:57;15.10;80.60
39519;DHT22;25200;53.394;10.414;2022-10-18T18:11:23;15.20;80.60
39519;DHT22;25200;53.394;10.414;2022-10-18T18:13:49;15.20;80.50
39519;DHT22;25200;53.394;10.414;2022-10-18T18:16:21;15.10;80.40
39519;DHT22;25200;53.394;10.414;2022-10-18T18:18:52;15.10;80.40
39519;DHT22;25200;53.394;10.414;2022-10-18T18:21:19;15.10;80.50
39519;DHT22;25200;53.394;10.414;2022-10-18T18:23:45;15.10;80.50
39519;DHT22;25200;53.394;10.414;2022-10-18T18:26:11;15.10;80.50
39519;DHT22;25200;53.394;10.414;2022-10-18T18:28:37;15.10;80.50